createdAt,value
2023-01-22T00:01:03.834Z,40.42
2023-01-22T00:03:52.747Z,32.55
2023-01-22T00:06:34.685Z,33.35
2023-01-22T00:09:24.715Z,39.55
2023-01-22T00:12:07.252Z,35.85
2023-01-22T00:14:56.724Z,34.92
2023-01-22T00:17:45.783Z,34.88
2023-01-22T00:20:28.009Z,32.60
2023-01-22T00:23:15.719Z,39.95
2023-01-22T00:26:07.964Z,36.13
2023-01-22T00:28:56.699Z,34.97
2023-01-22T00:31:39.104Z,32.40
2023-01-22T00:34:28.770Z,29.95
2023-01-22T00:37:10.994Z,33.03
2023-01-22T00:39:58.712Z,33.95
2023-01-22T00:42:48.709Z,30.58
2023-01-22T00:45:30.860Z,32.10
2023-01-22T00:48:20.807Z,36.92
2023-01-22T00:51:02.795Z,30.95
2023-01-22T00:53:52.738Z,33.65
2023-01-22T00:56:34.743Z,29.23
2023-01-22T00:59:24.747Z,33.53
2023-01-22T01:02:07.272Z,29.60
2023-01-22T01:04:55.725Z,26.40
2023-01-22T01:07:37.613Z,29.83
2023-01-22T01:10:26.740Z,34.55
2023-01-22T01:13:08.654Z,36.20
2023-01-22T01:15:58.835Z,36.45
2023-01-22T01:18:47.815Z,30.45
2023-01-22T01:21:29.903Z,27.33
2023-01-22T01:24:18.819Z,30.20
2023-01-22T01:27:00.967Z,32.90
2023-01-22T01:29:48.732Z,32.85
2023-01-22T01:32:31.935Z,27.60
2023-01-22T01:35:19.837Z,28.80
2023-01-22T01:38:01.926Z,28.00
2023-01-22T01:40:50.768Z,28.85
2023-01-22T01:43:34.442Z,24.58
2023-01-22T01:46:27.752Z,24.08
2023-01-22T01:49:11.973Z,24.30
2023-01-22T01:52:02.742Z,27.77
2023-01-22T01:54:54.739Z,26.67
2023-01-22T01:57:36.975Z,30.48
2023-01-22T02:00:28.745Z,23.58
2023-01-22T02:03:10.804Z,28.45
2023-01-22T02:06:00.738Z,30.45
2023-01-22T02:08:45.688Z,33.28
2023-01-22T02:11:35.740Z,28.00
2023-01-22T02:14:21.508Z,32.42
2023-01-22T02:17:17.851Z,32.13
2023-01-22T02:20:12.753Z,33.08
2023-01-22T02:22:56.079Z,28.13
2023-01-22T02:25:44.737Z,31.88
2023-01-22T02:28:26.723Z,31.48
2023-01-22T02:31:15.842Z,31.30
2023-01-22T02:33:57.692Z,34.95
2023-01-22T02:36:49.742Z,33.42
2023-01-22T02:39:33.095Z,31.98
2023-01-22T02:42:22.894Z,34.50
2023-01-22T02:45:04.968Z,26.90
2023-01-22T02:47:55.832Z,33.10
2023-01-22T02:50:48.767Z,36.05
2023-01-22T02:53:32.063Z,32.90
2023-01-22T02:56:21.887Z,29.92
2023-01-22T02:59:04.007Z,39.80
2023-01-22T03:01:52.883Z,34.83
2023-01-22T03:04:36.043Z,31.70
2023-01-22T03:07:25.826Z,35.05
2023-01-22T03:10:31.766Z,37.75
2023-01-22T03:13:39.768Z,35.72
2023-01-22T03:16:45.783Z,35.55
2023-01-22T03:19:46.722Z,34.42
2023-01-22T03:22:37.772Z,37.55
2023-01-22T03:25:20.067Z,38.47
2023-01-22T03:28:25.766Z,33.70
2023-01-22T03:31:08.967Z,34.60
2023-01-22T03:33:56.783Z,34.17
2023-01-22T03:36:45.776Z,31.35
2023-01-22T03:39:29.010Z,33.72
2023-01-22T03:42:18.774Z,37.95
2023-01-22T03:45:00.630Z,32.30
2023-01-22T03:47:53.768Z,28.98
2023-01-22T03:50:39.665Z,31.65
2023-01-22T03:53:28.819Z,36.90
2023-01-22T03:56:13.698Z,36.42
2023-01-22T03:59:04.843Z,35.83
2023-01-22T04:01:46.685Z,34.78
2023-01-22T04:04:37.775Z,33.58
2023-01-22T04:07:27.763Z,23.50
2023-01-22T04:10:10.046Z,33.20
2023-01-22T04:12:58.767Z,34.67
2023-01-22T04:15:40.939Z,31.27
2023-01-22T04:18:51.782Z,30.58
2023-01-22T04:21:44.019Z,32.38
2023-01-22T04:24:33.804Z,29.83
2023-01-22T04:27:16.043Z,30.50
2023-01-22T04:30:05.849Z,36.88
2023-01-22T04:32:54.867Z,29.63
2023-01-22T04:35:45.840Z,37.22
2023-01-22T04:38:35.777Z,32.13
2023-01-22T04:41:17.696Z,35.55
2023-01-22T04:44:07.794Z,31.40
2023-01-22T04:46:50.728Z,31.35
2023-01-22T04:49:39.764Z,31.88
2023-01-22T04:52:22.871Z,31.70
2023-01-22T04:55:12.800Z,30.88
2023-01-22T04:58:03.447Z,29.42
2023-01-22T05:00:52.780Z,31.27
2023-01-22T05:03:41.797Z,25.13
2023-01-22T05:06:24.149Z,33.92
2023-01-22T05:09:12.777Z,29.55
2023-01-22T05:14:56.829Z,26.67
2023-01-22T05:17:45.074Z,25.45
2023-01-22T05:20:27.797Z,30.45
2023-01-22T05:23:10.800Z,30.13
2023-01-22T05:26:02.791Z,32.13
2023-01-22T05:28:59.765Z,27.67
2023-01-22T05:31:53.175Z,27.15
2023-01-22T05:34:44.877Z,25.90
2023-01-22T05:37:27.031Z,28.83
2023-01-22T05:40:19.019Z,25.33
2023-01-22T05:43:01.973Z,31.77
2023-01-22T05:45:51.821Z,28.73
2023-01-22T05:48:54.041Z,22.33
2023-01-22T05:51:45.791Z,28.65
2023-01-22T05:54:27.995Z,27.20
2023-01-22T05:57:17.783Z,18.42
2023-01-22T06:00:00.096Z,14.63
2023-01-22T06:03:02.791Z,20.40
2023-01-22T06:05:59.824Z,18.73
2023-01-22T06:08:42.135Z,15.60
2023-01-22T06:11:31.867Z,15.88
2023-01-22T06:14:13.810Z,21.02
2023-01-22T06:17:03.890Z,20.02
2023-01-22T06:19:49.193Z,14.90
2023-01-22T06:22:37.807Z,18.08
2023-01-22T06:25:19.813Z,19.35
2023-01-22T06:28:18.872Z,18.13
2023-01-22T06:31:05.681Z,18.15
2023-01-22T06:33:55.792Z,16.65
2023-01-22T06:36:52.804Z,18.98
2023-01-22T06:39:38.713Z,22.55
2023-01-22T06:42:35.835Z,16.10
2023-01-22T06:45:17.890Z,23.08
2023-01-22T06:48:09.822Z,20.92
2023-01-22T06:50:52.820Z,17.85
2023-01-22T06:53:42.846Z,18.88
2023-01-22T06:56:28.630Z,21.13
2023-01-22T06:59:18.796Z,18.13
2023-01-22T07:02:00.810Z,18.13
2023-01-22T07:04:49.797Z,16.23
2023-01-22T07:07:38.919Z,27.23
2023-01-22T07:10:22.058Z,19.73
2023-01-22T07:13:11.139Z,17.90
2023-01-22T07:15:53.101Z,15.30
2023-01-22T07:18:41.800Z,17.50
2023-01-22T07:21:24.209Z,18.92
2023-01-22T07:24:12.810Z,16.80
2023-01-22T07:26:56.069Z,17.70
2023-01-22T07:29:43.800Z,20.05
2023-01-22T07:32:32.821Z,16.80
2023-01-22T07:35:14.765Z,15.95
2023-01-22T07:38:06.821Z,23.52
2023-01-22T07:40:48.744Z,14.45
2023-01-22T07:43:38.852Z,23.10
2023-01-22T07:46:20.905Z,21.35
2023-01-22T07:49:09.814Z,17.95
2023-01-22T07:51:51.667Z,18.02
2023-01-22T07:54:42.861Z,20.13
2023-01-22T07:57:25.030Z,19.83
2023-01-22T08:00:17.142Z,17.02
2023-01-22T08:03:05.855Z,18.38
2023-01-22T08:05:48.169Z,19.38
2023-01-22T08:08:36.882Z,18.15
2023-01-22T08:11:19.071Z,17.83
2023-01-22T08:14:06.913Z,16.00
2023-01-22T08:16:50.064Z,19.15
2023-01-22T08:19:37.871Z,21.27
2023-01-22T08:22:20.107Z,14.77
2023-01-22T08:25:07.889Z,16.20
2023-01-22T08:27:50.064Z,18.85
2023-01-22T08:30:45.498Z,14.68
2023-01-22T08:33:35.857Z,15.60
2023-01-22T08:36:17.752Z,16.60
2023-01-22T08:39:06.843Z,18.13
2023-01-22T08:41:48.711Z,19.02
2023-01-22T08:44:37.830Z,17.85
2023-01-22T08:47:19.837Z,20.75
2023-01-22T08:50:10.840Z,15.25
2023-01-22T08:52:52.770Z,19.45
2023-01-22T08:55:41.917Z,21.38
2023-01-22T08:58:25.409Z,15.93
2023-01-22T09:01:13.955Z,20.95
2023-01-22T09:04:01.894Z,14.60
2023-01-22T09:06:46.182Z,19.67
2023-01-22T09:09:34.836Z,18.63
2023-01-22T09:12:17.105Z,20.83
2023-01-22T09:15:04.947Z,19.13
2023-01-22T09:17:53.154Z,14.88
2023-01-22T09:20:34.840Z,22.45
2023-01-22T09:23:18.807Z,19.30
2023-01-22T09:26:07.866Z,17.17
2023-01-22T09:29:04.874Z,17.00
2023-01-22T09:31:46.841Z,17.10
2023-01-22T09:34:35.892Z,19.88
2023-01-22T09:37:17.823Z,17.80
2023-01-22T09:40:07.923Z,19.15
2023-01-22T09:42:50.814Z,24.90
2023-01-22T09:45:40.946Z,22.38
2023-01-22T09:48:23.983Z,17.75
2023-01-22T09:51:12.939Z,19.98
2023-01-22T09:53:59.781Z,17.85
2023-01-22T09:56:57.890Z,17.33
2023-01-22T09:59:51.941Z,15.73
2023-01-22T10:02:38.055Z,18.67
2023-01-22T10:05:35.858Z,19.88
2023-01-22T10:08:22.125Z,23.13
2023-01-22T10:13:54.116Z,19.70
2023-01-22T10:16:42.963Z,14.77
2023-01-22T10:19:29.119Z,17.98
2023-01-22T10:22:23.872Z,24.30
2023-01-22T10:25:06.026Z,21.15
2023-01-22T10:28:03.853Z,19.20
2023-01-22T10:31:04.968Z,17.05
2023-01-22T10:33:46.758Z,20.38
2023-01-22T10:36:35.869Z,20.75
2023-01-22T10:39:18.583Z,17.95
2023-01-22T10:42:15.895Z,11.48
2023-01-22T10:45:15.993Z,15.63
2023-01-22T10:48:05.912Z,18.52
2023-01-22T10:50:59.909Z,17.27
2023-01-22T10:53:52.042Z,14.13
2023-01-22T10:56:43.902Z,18.90
2023-01-22T10:59:30.135Z,17.17
2023-01-22T11:02:25.973Z,19.10
2023-01-22T11:05:24.239Z,15.98
2023-01-22T11:08:14.903Z,18.15
2023-01-22T11:14:01.883Z,14.57
2023-01-22T11:19:37.931Z,16.20
2023-01-22T11:22:33.363Z,16.13
2023-01-22T11:25:21.903Z,16.98
2023-01-22T11:28:24.966Z,14.40
2023-01-22T11:31:25.020Z,18.10
2023-01-22T11:34:25.888Z,14.30
2023-01-22T11:37:14.264Z,16.98
2023-01-22T11:40:20.257Z,16.00
2023-01-22T11:43:18.135Z,14.35
2023-01-22T11:46:19.985Z,18.30
2023-01-22T11:49:19.477Z,15.60
2023-01-22T11:52:20.909Z,18.60
2023-01-22T11:55:47.903Z,15.38
2023-01-22T11:58:41.142Z,17.05
2023-01-22T12:01:39.903Z,17.15
2023-01-22T12:04:55.174Z,16.13
2023-01-22T12:08:01.969Z,18.55
2023-01-22T12:11:05.084Z,15.10
2023-01-22T12:14:25.009Z,21.15
2023-01-22T12:17:22.937Z,16.35
2023-01-22T12:20:44.404Z,18.15
2023-01-22T12:23:37.913Z,18.98
2023-01-22T12:26:24.496Z,19.33
2023-01-22T12:29:20.911Z,18.30
2023-01-22T12:35:03.961Z,18.75
2023-01-22T12:37:49.148Z,14.88
2023-01-22T12:43:35.039Z,16.40
2023-01-22T12:46:32.933Z,20.83
2023-01-22T12:49:16.761Z,14.50
2023-01-22T12:52:07.933Z,17.10
2023-01-22T12:57:48.167Z,14.18
2023-01-22T13:00:42.036Z,17.23
2023-01-22T13:03:33.514Z,16.42
2023-01-22T13:09:08.164Z,14.68
2023-01-22T13:11:56.934Z,15.80
2023-01-22T13:14:39.284Z,15.70
2023-01-22T13:17:32.003Z,11.00
2023-01-22T13:20:26.605Z,15.85
2023-01-22T13:23:14.934Z,14.73
2023-01-22T13:26:01.165Z,13.35
2023-01-22T13:28:55.004Z,19.38
2023-01-22T13:31:37.205Z,13.73
2023-01-22T13:34:26.961Z,15.23
2023-01-22T13:37:15.907Z,13.65
2023-01-22T13:39:57.960Z,16.45
2023-01-22T13:42:48.993Z,14.82
2023-01-22T13:48:20.950Z,13.50
2023-01-22T13:51:08.394Z,14.18
2023-01-22T13:54:00.975Z,18.15
2023-01-22T13:56:43.126Z,20.02
2023-01-22T13:59:41.956Z,16.95
2023-01-22T14:02:24.890Z,17.48
2023-01-22T14:05:13.934Z,17.75
2023-01-22T14:08:14.019Z,15.77
2023-01-22T14:11:04.170Z,13.80
2023-01-22T14:13:54.997Z,15.73
2023-01-22T14:16:47.185Z,18.17
2023-01-22T14:19:35.936Z,14.68
2023-01-22T14:22:18.244Z,17.35
2023-01-22T14:25:07.950Z,16.30
2023-01-22T14:27:52.339Z,13.77
2023-01-22T14:30:41.038Z,19.00
2023-01-22T14:33:27.241Z,14.75
2023-01-22T14:36:15.920Z,18.00
2023-01-22T14:39:06.774Z,18.02
2023-01-22T14:44:39.970Z,15.00
2023-01-22T14:47:22.101Z,14.73
2023-01-22T14:50:11.001Z,15.02
2023-01-22T14:52:53.250Z,16.65
2023-01-22T14:55:41.968Z,14.35
2023-01-22T14:58:25.352Z,15.27
2023-01-22T15:01:14.116Z,19.65
2023-01-22T15:04:08.970Z,15.88
2023-01-22T15:06:51.085Z,21.05
2023-01-22T15:09:39.960Z,18.10
2023-01-22T15:12:23.539Z,17.95
2023-01-22T15:15:12.986Z,16.63
2023-01-22T15:18:09.007Z,16.13
2023-01-22T15:20:56.975Z,18.25
2023-01-22T15:23:40.171Z,14.85
2023-01-22T15:26:33.019Z,16.05
2023-01-22T15:29:25.026Z,15.35
2023-01-22T15:32:08.362Z,15.77
2023-01-22T15:34:56.973Z,15.30
2023-01-22T15:37:38.935Z,14.48
2023-01-22T15:40:29.028Z,13.18
2023-01-22T15:43:10.963Z,14.43
2023-01-22T15:46:00.156Z,16.50
2023-01-22T15:48:43.390Z,14.88
2023-01-22T15:51:33.117Z,16.40
2023-01-22T15:54:16.850Z,15.73
2023-01-22T15:57:06.056Z,16.33
2023-01-22T15:59:54.964Z,16.30
2023-01-22T16:02:47.191Z,15.35
2023-01-22T16:05:37.076Z,16.52
2023-01-22T16:08:19.199Z,15.20
2023-01-22T16:11:06.996Z,14.55
2023-01-22T16:13:50.195Z,18.50
2023-01-22T16:16:39.971Z,16.50
2023-01-22T16:19:28.263Z,14.63
2023-01-22T16:22:12.075Z,15.23
2023-01-22T16:25:00.048Z,17.65
2023-01-22T16:27:42.189Z,17.30
2023-01-22T16:30:31.012Z,15.52
2023-01-22T16:33:25.244Z,15.98
2023-01-22T16:36:16.983Z,16.70
2023-01-22T16:39:00.135Z,17.38
2023-01-22T16:41:48.984Z,16.65
2023-01-22T16:44:33.531Z,17.13
2023-01-22T16:47:20.968Z,20.23
2023-01-22T16:50:09.945Z,13.80
2023-01-22T16:52:51.820Z,17.10
2023-01-22T16:55:41.993Z,16.58
2023-01-22T16:58:24.111Z,21.88
2023-01-22T17:01:13.088Z,17.67
2023-01-22T17:03:54.923Z,19.58
2023-01-22T17:06:46.975Z,17.30
2023-01-22T17:09:31.153Z,18.58
2023-01-22T17:12:22.057Z,16.83
2023-01-22T17:17:52.003Z,16.80
2023-01-22T17:20:44.583Z,21.40
2023-01-22T17:23:30.439Z,17.25
2023-01-22T17:26:19.961Z,18.65
2023-01-22T17:29:03.238Z,20.13
2023-01-22T17:31:52.109Z,24.45
2023-01-22T17:34:35.499Z,16.08
2023-01-22T17:37:23.963Z,19.02
2023-01-22T17:40:06.328Z,15.82
2023-01-22T17:42:54.994Z,17.95
2023-01-22T17:45:45.096Z,18.92
2023-01-22T17:48:28.004Z,20.67
2023-01-22T17:51:19.028Z,21.63
2023-01-22T17:54:03.174Z,23.02
2023-01-22T17:56:56.010Z,21.15
2023-01-22T17:59:38.073Z,20.75
2023-01-22T18:02:28.036Z,23.90
2023-01-22T18:05:10.774Z,22.70
2023-01-22T18:07:59.225Z,20.08
2023-01-22T18:10:54.131Z,21.88
2023-01-22T18:13:36.479Z,23.35
2023-01-22T18:16:26.978Z,21.88
2023-01-22T18:22:00.117Z,18.50
2023-01-22T18:24:44.260Z,23.38
2023-01-22T18:27:33.084Z,20.95
2023-01-22T18:30:16.267Z,19.60
2023-01-22T18:33:05.156Z,23.70
2023-01-22T18:35:49.897Z,20.77
2023-01-22T18:38:39.019Z,21.50
2023-01-22T18:41:29.995Z,22.40
2023-01-22T18:47:04.073Z,15.52
2023-01-22T18:49:46.693Z,21.38
2023-01-22T18:52:36.035Z,20.30
2023-01-22T18:55:21.725Z,20.48
2023-01-22T18:58:37.025Z,20.80
2023-01-22T19:01:30.004Z,20.25
2023-01-22T19:04:19.478Z,18.20
2023-01-22T19:07:09.094Z,19.38
2023-01-22T19:09:53.497Z,21.55
2023-01-22T19:12:42.102Z,20.90
2023-01-22T19:15:24.663Z,23.88
2023-01-22T19:18:12.999Z,20.25
2023-01-22T19:20:54.989Z,21.75
2023-01-22T19:23:44.099Z,22.15
2023-01-22T19:26:30.644Z,20.02
2023-01-22T19:29:21.101Z,20.63
2023-01-22T19:34:51.292Z,19.80
2023-01-22T19:37:40.026Z,26.10
2023-01-22T19:40:22.360Z,25.42
2023-01-22T19:43:13.102Z,21.30
2023-01-22T19:45:55.994Z,19.30
2023-01-22T19:48:44.998Z,23.73
2023-01-22T19:51:27.513Z,22.70
2023-01-22T19:54:17.024Z,21.95
2023-01-22T19:57:08.089Z,25.42
2023-01-22T19:59:55.143Z,26.42
2023-01-22T20:02:51.058Z,28.27
2023-01-22T20:05:33.200Z,24.35
2023-01-22T20:08:23.192Z,29.20
2023-01-22T20:11:06.246Z,20.92
2023-01-22T20:13:56.028Z,21.95
2023-01-22T20:16:40.702Z,21.55
2023-01-22T20:19:30.571Z,24.42
2023-01-22T20:22:12.126Z,21.92
2023-01-22T20:25:01.119Z,22.35
2023-01-22T20:27:50.092Z,21.17
2023-01-22T20:30:32.413Z,25.65
2023-01-22T20:33:22.111Z,22.02
2023-01-22T20:36:05.361Z,28.70
2023-01-22T20:38:55.017Z,22.83
2023-01-22T20:44:27.028Z,20.65
2023-01-22T20:47:09.281Z,24.42
2023-01-22T20:49:59.048Z,21.90
2023-01-22T20:52:47.999Z,22.70
2023-01-22T20:55:29.980Z,24.20
2023-01-22T20:58:19.082Z,23.52
2023-01-22T21:01:05.477Z,23.15
2023-01-22T21:03:54.039Z,23.95
2023-01-22T21:06:39.413Z,31.08
2023-01-22T21:12:13.161Z,24.13
2023-01-22T21:15:02.088Z,24.52
2023-01-22T21:17:57.045Z,29.33
2023-01-22T21:20:39.124Z,29.73
2023-01-22T21:23:30.058Z,27.75
2023-01-22T21:29:01.055Z,24.58
2023-01-22T21:31:43.514Z,23.77
2023-01-22T21:34:35.040Z,24.75
2023-01-22T21:37:17.077Z,26.58
2023-01-22T21:40:07.179Z,26.60
2023-01-22T21:43:14.157Z,24.55
2023-01-22T21:46:13.623Z,26.58
2023-01-22T21:49:05.133Z,25.60
2023-01-22T21:51:47.255Z,25.13
2023-01-22T21:54:37.088Z,23.50
2023-01-22T21:57:22.361Z,26.52
2023-01-22T22:00:11.121Z,25.85
2023-01-22T22:02:54.212Z,25.80
2023-01-22T22:05:42.087Z,25.95
2023-01-22T22:08:24.336Z,28.60
2023-01-22T22:11:13.041Z,29.80
2023-01-22T22:13:56.696Z,28.02
2023-01-22T22:16:39.140Z,24.95
2023-01-22T22:19:35.090Z,27.02
2023-01-22T22:22:17.732Z,24.77
2023-01-22T22:25:09.198Z,24.15
2023-01-22T22:27:51.105Z,30.98
2023-01-22T22:30:42.041Z,32.15
2023-01-22T22:33:24.155Z,27.33
2023-01-22T22:36:14.056Z,28.98
2023-01-22T22:38:56.439Z,25.65
2023-01-22T22:41:47.188Z,27.05
2023-01-22T22:47:18.289Z,26.30
2023-01-22T22:50:06.042Z,24.90
2023-01-22T22:52:48.423Z,27.38
2023-01-22T22:55:37.036Z,28.05
2023-01-22T22:58:20.722Z,26.27
2023-01-22T23:01:15.180Z,24.33
2023-01-22T23:03:59.372Z,24.85
2023-01-22T23:06:49.069Z,25.95
2023-01-22T23:09:31.293Z,26.65
2023-01-22T23:12:19.064Z,27.05
2023-01-22T23:15:08.049Z,26.98
2023-01-22T23:18:03.046Z,29.92
2023-01-22T23:20:53.036Z,28.42
2023-01-22T23:23:35.222Z,26.63
2023-01-22T23:26:26.043Z,24.75
2023-01-22T23:29:10.227Z,25.35
2023-01-22T23:31:59.081Z,27.00
2023-01-22T23:34:41.470Z,22.75
2023-01-22T23:37:31.083Z,28.23
2023-01-22T23:40:21.234Z,23.30
2023-01-22T23:43:03.833Z,26.67
2023-01-22T23:45:53.262Z,27.17
2023-01-22T23:48:38.091Z,28.83
2023-01-22T23:51:29.083Z,30.23
2023-01-22T23:54:12.529Z,28.08
2023-01-22T23:57:01.069Z,23.17
2023-01-22T23:59:43.249Z,23.85
